createdAt,value
2018-12-24T00:00:51.031Z,988.33
2018-12-24T00:01:51.211Z,988.22
2018-12-24T00:02:51.377Z,988.09
2018-12-24T00:03:51.547Z,988.04
2018-12-24T00:04:51.720Z,988.00
2018-12-24T00:05:51.891Z,987.95
2018-12-24T00:06:52.068Z,988.05
2018-12-24T00:07:52.254Z,988.19
2018-12-24T00:08:52.410Z,988.26
2018-12-24T00:09:52.584Z,988.30
2018-12-24T00:10:52.757Z,988.37
2018-12-24T00:11:52.927Z,988.34
2018-12-24T00:12:53.094Z,988.34
2018-12-24T00:13:53.273Z,988.32
2018-12-24T00:14:53.445Z,988.26
2018-12-24T00:15:53.622Z,988.28
2018-12-24T00:16:53.806Z,988.30
2018-12-24T00:17:53.969Z,988.36
2018-12-24T00:18:54.142Z,988.40
2018-12-24T00:19:54.316Z,988.41
2018-12-24T00:20:54.487Z,988.43
2018-12-24T00:21:54.663Z,988.42
2018-12-24T00:22:54.836Z,988.43
2018-12-24T00:23:55.116Z,988.38
2018-12-24T00:24:55.191Z,988.45
2018-12-24T00:25:55.361Z,988.51
2018-12-24T00:26:55.527Z,988.59
2018-12-24T00:27:55.700Z,988.64
2018-12-24T00:28:55.873Z,988.71
2018-12-24T00:29:56.039Z,988.68
2018-12-24T00:30:56.214Z,988.71
2018-12-24T00:31:56.384Z,988.69
2018-12-24T00:32:56.575Z,988.70
2018-12-24T00:33:56.738Z,988.69
2018-12-24T00:34:56.903Z,988.69
2018-12-24T00:35:57.068Z,988.77
2018-12-24T00:36:57.242Z,988.84
2018-12-24T00:37:57.429Z,988.93
2018-12-24T00:38:57.587Z,988.90
2018-12-24T00:39:57.759Z,988.87
2018-12-24T00:40:57.932Z,988.93
2018-12-24T00:41:58.107Z,988.94
2018-12-24T00:42:58.279Z,988.96
2018-12-24T00:43:58.477Z,988.98
2018-12-24T00:44:58.644Z,988.98
2018-12-24T00:45:58.802Z,989.01
2018-12-24T00:46:58.976Z,989.05
2018-12-24T00:47:59.150Z,989.09
2018-12-24T00:48:59.322Z,989.06
2018-12-24T00:49:59.499Z,989.03
2018-12-24T00:50:59.671Z,989.05
2018-12-24T00:51:59.841Z,988.98
2018-12-24T00:53:00.017Z,989.00
2018-12-24T00:54:00.195Z,988.96
2018-12-24T00:55:00.365Z,989.05
2018-12-24T00:56:00.539Z,988.98
2018-12-24T00:57:00.712Z,989.04
2018-12-24T00:58:00.891Z,989.12
2018-12-24T00:59:01.057Z,989.18
2018-12-24T01:00:01.398Z,989.26
2018-12-24T01:01:01.410Z,989.28
2018-12-24T01:02:01.593Z,989.24
2018-12-24T01:03:01.755Z,989.21
2018-12-24T01:04:01.925Z,989.31
2018-12-24T01:05:02.100Z,989.35
2018-12-24T01:07:02.437Z,989.37
2018-12-24T01:08:02.609Z,989.40
2018-12-24T01:09:02.783Z,989.43
2018-12-24T01:10:02.960Z,989.42
2018-12-24T01:11:03.130Z,989.38
2018-12-24T01:12:03.303Z,989.41
2018-12-24T01:13:03.478Z,989.50
2018-12-24T01:14:03.653Z,989.54
2018-12-24T01:15:03.815Z,989.54
2018-12-24T01:16:03.987Z,989.53
2018-12-24T01:17:04.161Z,989.49
2018-12-24T01:18:04.331Z,989.49
2018-12-24T01:19:04.518Z,989.52
2018-12-24T01:20:04.680Z,989.58
2018-12-24T01:21:04.853Z,989.68
2018-12-24T01:22:05.025Z,989.78
2018-12-24T01:23:05.198Z,989.82
2018-12-24T01:24:05.374Z,989.85
2018-12-24T01:25:05.545Z,989.80
2018-12-24T01:26:05.731Z,989.92
2018-12-24T01:28:06.055Z,990.01
2018-12-24T01:29:06.227Z,990.04
2018-12-24T01:30:06.399Z,990.08
2018-12-24T01:31:06.570Z,990.11
2018-12-24T01:32:06.740Z,990.06
2018-12-24T01:33:06.920Z,990.13
2018-12-24T01:34:07.091Z,990.15
2018-12-24T01:35:07.259Z,990.21
2018-12-24T01:36:07.435Z,990.23
2018-12-24T01:37:07.606Z,990.28
2018-12-24T01:38:07.779Z,990.32
2018-12-24T01:39:07.956Z,990.31
2018-12-24T01:40:08.137Z,990.29
2018-12-24T01:41:08.297Z,990.28
2018-12-24T01:42:08.470Z,990.34
2018-12-24T01:43:08.641Z,990.37
2018-12-24T01:44:08.812Z,990.39
2018-12-24T01:45:08.984Z,990.34
2018-12-24T01:46:09.156Z,990.46
2018-12-24T01:47:09.329Z,990.53
2018-12-24T01:48:09.498Z,990.54
2018-12-24T01:49:09.678Z,990.60
2018-12-24T01:50:09.846Z,990.55
2018-12-24T01:51:10.016Z,990.54
2018-12-24T01:52:10.196Z,990.53
2018-12-24T01:53:10.364Z,990.52
2018-12-24T01:54:10.536Z,990.56
2018-12-24T01:55:10.712Z,990.67
2018-12-24T01:56:10.899Z,990.66
2018-12-24T01:57:11.069Z,990.75
2018-12-24T01:58:11.242Z,990.80
2018-12-24T01:59:11.413Z,990.84
2018-12-24T02:00:11.586Z,990.82
2018-12-24T02:01:11.758Z,990.90
2018-12-24T02:02:11.930Z,990.94
2018-12-24T02:03:12.104Z,990.95
2018-12-24T02:04:12.279Z,990.98
2018-12-24T02:05:12.446Z,991.00
2018-12-24T02:06:12.620Z,991.03
2018-12-24T02:07:12.788Z,991.07
2018-12-24T02:08:12.959Z,991.09
2018-12-24T02:09:13.132Z,991.10
2018-12-24T02:10:13.307Z,991.12
2018-12-24T02:11:13.482Z,991.08
2018-12-24T02:12:13.659Z,991.19
2018-12-24T02:13:13.830Z,991.21
2018-12-24T02:14:13.995Z,991.28
2018-12-24T02:15:14.172Z,991.33
2018-12-24T02:16:14.361Z,991.35
2018-12-24T02:17:14.519Z,991.33
2018-12-24T02:18:14.692Z,991.26
2018-12-24T02:19:14.866Z,991.19
2018-12-24T02:20:15.045Z,991.18
2018-12-24T02:21:15.205Z,991.15
2018-12-24T02:22:15.384Z,991.23
2018-12-24T02:23:15.549Z,991.28
2018-12-24T02:24:15.734Z,991.32
2018-12-24T02:25:15.901Z,991.41
2018-12-24T02:26:16.072Z,991.40
2018-12-24T02:27:16.243Z,991.43
2018-12-24T02:28:16.421Z,991.37
2018-12-24T02:29:16.600Z,991.40
2018-12-24T02:30:16.776Z,991.41
2018-12-24T02:31:16.937Z,991.45
2018-12-24T02:32:17.111Z,991.51
2018-12-24T02:33:17.287Z,991.52
2018-12-24T02:34:17.467Z,991.53
2018-12-24T02:35:17.634Z,991.54
2018-12-24T02:36:17.809Z,991.52
2018-12-24T02:37:17.979Z,991.46
2018-12-24T02:38:18.157Z,991.54
2018-12-24T02:39:18.323Z,991.60
2018-12-24T02:40:18.499Z,991.62
2018-12-24T02:41:18.669Z,991.65
2018-12-24T02:42:18.843Z,991.66
2018-12-24T02:43:19.019Z,991.65
2018-12-24T02:44:19.195Z,991.63
2018-12-24T02:45:19.366Z,991.65
2018-12-24T02:46:19.539Z,991.68
2018-12-24T02:47:19.711Z,991.71
2018-12-24T02:48:19.881Z,991.75
2018-12-24T02:49:20.055Z,991.80
2018-12-24T02:50:20.228Z,991.81
2018-12-24T02:51:20.398Z,991.85
2018-12-24T02:52:20.574Z,991.86
2018-12-24T02:53:20.744Z,991.95
2018-12-24T02:54:20.918Z,991.90
2018-12-24T02:55:21.088Z,991.94
2018-12-24T02:56:21.266Z,991.90
2018-12-24T02:57:21.436Z,991.91
2018-12-24T02:58:21.605Z,991.97
2018-12-24T02:59:21.780Z,992.01
2018-12-24T03:00:21.950Z,992.04
2018-12-24T03:01:22.121Z,992.07
2018-12-24T03:02:22.311Z,992.07
2018-12-24T03:03:22.466Z,992.12
2018-12-24T03:04:22.640Z,992.11
2018-12-24T03:05:22.813Z,992.15
2018-12-24T03:06:22.985Z,992.14
2018-12-24T03:07:23.159Z,992.13
2018-12-24T03:08:23.336Z,992.16
2018-12-24T03:09:23.508Z,992.21
2018-12-24T03:10:23.679Z,992.21
2018-12-24T03:11:23.853Z,992.21
2018-12-24T03:12:24.027Z,992.18
2018-12-24T03:13:24.196Z,992.21
2018-12-24T03:14:24.370Z,992.19
2018-12-24T03:15:24.542Z,992.16
2018-12-24T03:16:24.717Z,992.18
2018-12-24T03:17:24.899Z,992.20
2018-12-24T03:18:25.060Z,992.21
2018-12-24T03:19:25.232Z,992.22
2018-12-24T03:20:25.408Z,992.21
2018-12-24T03:21:25.574Z,992.20
2018-12-24T03:22:25.745Z,992.24
2018-12-24T03:23:25.921Z,992.19
2018-12-24T03:24:26.091Z,992.24
2018-12-24T03:25:26.274Z,992.24
2018-12-24T03:26:26.441Z,992.27
2018-12-24T03:27:26.611Z,992.29
2018-12-24T03:28:26.785Z,992.30
2018-12-24T03:29:26.958Z,992.30
2018-12-24T03:30:27.137Z,992.35
2018-12-24T03:31:27.311Z,992.37
2018-12-24T03:32:27.474Z,992.31
2018-12-24T03:33:27.650Z,992.37
2018-12-24T03:34:27.823Z,992.41
2018-12-24T03:35:27.989Z,992.42
2018-12-24T03:36:28.159Z,992.45
2018-12-24T03:37:28.338Z,992.46
2018-12-24T03:38:28.503Z,992.45
2018-12-24T03:39:28.681Z,992.54
2018-12-24T03:40:28.853Z,992.53
2018-12-24T03:41:29.019Z,992.54
2018-12-24T03:42:29.191Z,992.57
2018-12-24T03:43:29.369Z,992.59
2018-12-24T03:44:29.534Z,992.58
2018-12-24T03:45:29.707Z,992.62
2018-12-24T03:46:29.932Z,992.59
2018-12-24T03:47:30.054Z,992.61
2018-12-24T03:48:30.230Z,992.69
2018-12-24T03:49:30.425Z,992.66
2018-12-24T03:50:30.576Z,992.72
2018-12-24T03:51:30.745Z,992.70
2018-12-24T03:52:30.920Z,992.68
2018-12-24T03:53:31.089Z,992.67
2018-12-24T03:54:31.265Z,992.70
2018-12-24T03:55:31.433Z,992.74
2018-12-24T03:56:31.605Z,992.69
2018-12-24T03:57:31.787Z,992.71
2018-12-24T03:58:31.950Z,992.74
2018-12-24T03:59:32.124Z,992.73
2018-12-24T04:00:32.298Z,992.76
2018-12-24T04:01:32.479Z,992.78
2018-12-24T04:02:32.639Z,992.83
2018-12-24T04:03:32.815Z,992.81
2018-12-24T04:04:32.983Z,992.80
2018-12-24T04:05:33.156Z,992.87
2018-12-24T04:06:33.334Z,992.84
2018-12-24T04:07:33.501Z,992.85
2018-12-24T04:08:33.679Z,992.82
2018-12-24T04:09:33.849Z,992.90
2018-12-24T04:10:34.019Z,992.84
2018-12-24T04:11:34.192Z,992.91
2018-12-24T04:12:34.363Z,992.87
2018-12-24T04:13:34.535Z,992.93
2018-12-24T04:14:34.708Z,992.97
2018-12-24T04:15:34.881Z,992.97
2018-12-24T04:16:35.175Z,993.09
2018-12-24T04:17:35.233Z,993.07
2018-12-24T04:18:35.393Z,993.06
2018-12-24T04:19:35.564Z,993.05
2018-12-24T04:20:35.737Z,993.12
2018-12-24T04:21:35.910Z,993.06
2018-12-24T04:22:36.083Z,993.12
2018-12-24T04:23:36.262Z,993.13
2018-12-24T04:24:36.518Z,993.10
2018-12-24T04:25:36.598Z,993.12
2018-12-24T04:26:36.773Z,993.19
2018-12-24T04:27:41.602Z,993.25
2018-12-24T04:28:37.116Z,993.17
2018-12-24T04:29:37.283Z,993.29
2018-12-24T04:30:37.460Z,993.25
2018-12-24T04:31:37.628Z,993.28
2018-12-24T04:32:37.802Z,993.34
2018-12-24T04:33:37.975Z,993.33
2018-12-24T04:34:38.161Z,993.36
2018-12-24T04:35:38.325Z,993.42
2018-12-24T04:36:38.491Z,993.44
2018-12-24T04:37:38.662Z,993.47
2018-12-24T04:38:38.836Z,993.50
2018-12-24T04:39:39.009Z,993.48
2018-12-24T04:40:39.180Z,993.50
2018-12-24T04:41:39.355Z,993.52
2018-12-24T04:42:39.521Z,993.59
2018-12-24T04:43:39.703Z,993.55
2018-12-24T04:44:39.975Z,993.64
2018-12-24T04:45:40.044Z,993.61
2018-12-24T04:46:40.222Z,993.67
2018-12-24T04:47:40.396Z,993.70
2018-12-24T04:48:40.560Z,993.72
2018-12-24T04:49:40.732Z,993.77
2018-12-24T04:50:40.908Z,993.83
2018-12-24T04:51:41.081Z,993.85
2018-12-24T04:52:41.255Z,993.88
2018-12-24T04:53:41.427Z,993.89
2018-12-24T04:54:41.602Z,993.93
2018-12-24T04:55:41.773Z,993.95
2018-12-24T04:56:41.951Z,993.92
2018-12-24T04:57:42.198Z,993.99
2018-12-24T04:58:42.290Z,993.97
2018-12-24T04:59:42.464Z,994.02
2018-12-24T05:00:42.638Z,994.10
2018-12-24T05:01:42.810Z,994.12
2018-12-24T05:02:43.110Z,994.14
2018-12-24T05:03:43.149Z,994.19
2018-12-24T05:04:43.368Z,994.23
2018-12-24T05:05:43.491Z,994.23
2018-12-24T05:06:43.664Z,994.33
2018-12-24T05:07:43.847Z,994.36
2018-12-24T05:08:44.007Z,994.38
2018-12-24T05:09:44.181Z,994.43
2018-12-24T05:10:44.353Z,994.47
2018-12-24T05:11:44.523Z,994.51
2018-12-24T05:12:44.704Z,994.56
2018-12-24T05:13:44.871Z,994.67
2018-12-24T05:14:45.044Z,994.73
2018-12-24T05:15:45.215Z,994.73
2018-12-24T05:16:45.388Z,994.74
2018-12-24T05:17:45.563Z,994.77
2018-12-24T05:18:45.737Z,994.79
2018-12-24T05:19:45.908Z,994.87
2018-12-24T05:20:46.081Z,994.88
2018-12-24T05:21:46.253Z,994.88
2018-12-24T05:22:46.425Z,994.98
2018-12-24T05:23:46.596Z,995.01
2018-12-24T05:24:46.769Z,995.02
2018-12-24T05:25:46.940Z,995.06
2018-12-24T05:26:47.113Z,995.12
2018-12-24T05:27:47.285Z,995.13
2018-12-24T05:28:47.460Z,995.20
2018-12-24T05:29:47.631Z,995.26
2018-12-24T05:30:47.812Z,995.21
2018-12-24T05:31:47.976Z,995.28
2018-12-24T05:32:48.143Z,995.45
2018-12-24T05:33:48.323Z,995.45
2018-12-24T05:34:48.483Z,995.42
2018-12-24T05:35:48.660Z,995.47
2018-12-24T05:36:48.825Z,995.49
2018-12-24T05:37:48.999Z,995.51
2018-12-24T05:38:49.171Z,995.50
2018-12-24T05:39:49.342Z,995.58
2018-12-24T05:40:49.515Z,995.59
2018-12-24T05:41:49.688Z,995.64
2018-12-24T05:42:49.861Z,995.67
2018-12-24T05:43:50.033Z,995.67
2018-12-24T05:44:50.211Z,995.73
2018-12-24T05:45:50.392Z,995.74
2018-12-24T05:46:50.556Z,995.78
2018-12-24T05:47:50.727Z,995.78
2018-12-24T05:48:50.902Z,995.90
2018-12-24T05:49:51.072Z,995.91
2018-12-24T05:50:51.245Z,996.06
2018-12-24T05:51:51.418Z,996.05
2018-12-24T05:52:51.592Z,996.06
2018-12-24T05:53:51.763Z,996.10
2018-12-24T05:54:51.934Z,996.12
2018-12-24T05:55:52.107Z,996.11
2018-12-24T05:56:52.279Z,996.17
2018-12-24T05:57:52.457Z,996.22
2018-12-24T05:58:52.625Z,996.22
2018-12-24T05:59:52.801Z,996.22
2018-12-24T06:00:52.975Z,996.26
2018-12-24T06:01:53.147Z,996.26
2018-12-24T06:02:53.321Z,996.28
2018-12-24T06:03:53.490Z,996.22
2018-12-24T06:04:53.664Z,996.29
2018-12-24T06:05:53.839Z,996.28
2018-12-24T06:06:54.012Z,996.36
2018-12-24T06:07:54.185Z,996.32
2018-12-24T06:08:54.354Z,996.39
2018-12-24T06:09:54.534Z,996.37
2018-12-24T06:10:54.701Z,996.50
2018-12-24T06:11:56.169Z,996.51
2018-12-24T06:12:55.047Z,996.54
2018-12-24T06:13:58.086Z,996.58
2018-12-24T06:14:55.389Z,996.63
2018-12-24T06:15:55.564Z,996.70
2018-12-24T06:16:55.735Z,996.70
2018-12-24T06:17:57.695Z,996.73
2018-12-24T06:18:56.083Z,996.79
2018-12-24T06:19:56.255Z,996.83
2018-12-24T06:20:56.428Z,996.89
2018-12-24T06:21:56.599Z,996.96
2018-12-24T06:22:56.775Z,996.98
2018-12-24T06:23:56.948Z,996.98
2018-12-24T06:24:57.118Z,997.01
2018-12-24T06:25:57.291Z,997.04
2018-12-24T06:26:57.463Z,997.02
2018-12-24T06:27:57.636Z,996.97
2018-12-24T06:28:57.809Z,996.99
2018-12-24T06:29:57.980Z,996.95
2018-12-24T06:30:58.155Z,996.98
2018-12-24T06:31:58.328Z,996.99
2018-12-24T06:32:58.519Z,996.97
2018-12-24T06:33:58.677Z,996.99
2018-12-24T06:34:58.856Z,997.06
2018-12-24T06:35:59.022Z,997.08
2018-12-24T06:36:59.200Z,997.18
2018-12-24T06:37:59.370Z,997.18
2018-12-24T06:38:59.542Z,997.17
2018-12-24T06:39:59.719Z,997.24
2018-12-24T06:40:59.899Z,997.25
2018-12-24T06:42:00.060Z,997.31
2018-12-24T06:43:00.232Z,997.41
2018-12-24T06:44:06.676Z,997.37
2018-12-24T06:45:00.577Z,997.42
2018-12-24T06:46:00.752Z,997.44
2018-12-24T06:47:00.925Z,997.50
2018-12-24T06:48:01.096Z,997.55
2018-12-24T06:49:01.270Z,997.58
2018-12-24T06:50:01.442Z,997.55
2018-12-24T06:51:01.617Z,997.61
2018-12-24T06:52:01.789Z,997.64
2018-12-24T06:53:01.993Z,997.63
2018-12-24T06:55:02.305Z,997.70
2018-12-24T06:56:02.485Z,997.73
2018-12-24T06:57:02.654Z,997.74
2018-12-24T06:58:02.819Z,997.78
2018-12-24T06:59:02.994Z,997.84
2018-12-24T07:00:03.164Z,997.86
2018-12-24T07:01:03.340Z,997.89
2018-12-24T07:02:03.512Z,997.93
2018-12-24T07:03:03.690Z,997.96
2018-12-24T07:04:03.860Z,997.97
2018-12-24T07:05:04.031Z,998.02
2018-12-24T07:06:04.201Z,998.02
2018-12-24T07:07:04.379Z,998.06
2018-12-24T07:08:04.561Z,998.08
2018-12-24T07:09:04.725Z,998.11
2018-12-24T07:10:04.900Z,998.16
2018-12-24T07:11:05.072Z,998.20
2018-12-24T07:12:05.244Z,998.19
2018-12-24T07:13:05.421Z,998.21
2018-12-24T07:14:05.589Z,998.25
2018-12-24T07:15:05.761Z,998.32
2018-12-24T07:16:05.933Z,998.29
2018-12-24T07:17:06.108Z,998.34
2018-12-24T07:18:06.276Z,998.33
2018-12-24T07:19:06.455Z,998.39
2018-12-24T07:20:06.628Z,998.43
2018-12-24T07:21:06.802Z,998.42
2018-12-24T07:22:06.987Z,998.45
2018-12-24T07:23:07.144Z,998.46
2018-12-24T07:24:07.315Z,998.55
2018-12-24T07:25:07.488Z,998.50
2018-12-24T07:26:09.063Z,998.47
2018-12-24T07:27:07.830Z,998.50
2018-12-24T07:28:08.014Z,998.46
2018-12-24T07:29:08.179Z,998.47
2018-12-24T07:30:08.365Z,998.43
2018-12-24T07:31:08.514Z,998.45
2018-12-24T07:32:08.690Z,998.46
2018-12-24T07:33:08.872Z,998.49
2018-12-24T07:34:09.031Z,998.47
2018-12-24T07:35:09.208Z,998.49
2018-12-24T07:36:09.368Z,998.51
2018-12-24T07:37:09.541Z,998.53
2018-12-24T07:38:09.717Z,998.54
2018-12-24T07:39:09.884Z,998.57
2018-12-24T07:40:10.073Z,998.55
2018-12-24T07:41:10.231Z,998.63
2018-12-24T07:42:10.403Z,998.61
2018-12-24T07:43:10.577Z,998.71
2018-12-24T07:44:10.763Z,998.74
2018-12-24T07:45:10.921Z,998.76
2018-12-24T07:46:11.093Z,998.79
2018-12-24T07:47:11.271Z,998.81
2018-12-24T07:48:11.439Z,998.84
2018-12-24T07:49:11.620Z,998.87
2018-12-24T07:50:11.781Z,998.92
2018-12-24T07:51:11.966Z,998.98
2018-12-24T07:52:12.128Z,998.99
2018-12-24T07:53:12.300Z,998.99
2018-12-24T07:54:12.476Z,999.07
2018-12-24T07:55:12.646Z,999.05
2018-12-24T07:56:12.821Z,999.16
2018-12-24T07:57:12.991Z,999.18
2018-12-24T07:58:13.167Z,999.21
2018-12-24T07:59:13.356Z,999.19
2018-12-24T08:00:13.510Z,999.15
2018-12-24T08:01:13.685Z,999.19
2018-12-24T08:02:13.856Z,999.18
2018-12-24T08:03:14.030Z,999.22
2018-12-24T08:04:14.203Z,999.25
2018-12-24T08:05:14.376Z,999.28
2018-12-24T08:06:14.548Z,999.26
2018-12-24T08:07:14.727Z,999.30
2018-12-24T08:08:14.900Z,999.36
2018-12-24T08:09:15.080Z,999.32
2018-12-24T08:10:15.240Z,999.38
2018-12-24T08:11:15.411Z,999.42
2018-12-24T08:12:15.586Z,999.48
2018-12-24T08:13:15.760Z,999.45
2018-12-24T08:14:15.993Z,999.48
2018-12-24T08:15:16.095Z,999.54
2018-12-24T08:16:16.267Z,999.59
2018-12-24T08:17:16.440Z,999.59
2018-12-24T08:18:16.612Z,999.62
2018-12-24T08:19:16.783Z,999.62
2018-12-24T08:20:16.958Z,999.68
2018-12-24T08:21:17.130Z,999.69
2018-12-24T08:22:17.300Z,999.74
2018-12-24T08:23:17.476Z,999.69
2018-12-24T08:24:17.641Z,999.79
2018-12-24T08:25:17.817Z,999.75
2018-12-24T08:26:17.988Z,999.79
2018-12-24T08:27:18.163Z,999.84
2018-12-24T08:28:18.337Z,999.88
2018-12-24T08:29:18.507Z,999.87
2018-12-24T08:30:18.695Z,999.92
2018-12-24T08:31:18.857Z,999.92
2018-12-24T08:32:19.031Z,999.92
2018-12-24T08:33:19.201Z,999.96
2018-12-24T08:34:19.371Z,999.93
2018-12-24T08:35:19.551Z,999.94
2018-12-24T08:36:19.716Z,999.96
2018-12-24T08:37:19.890Z,1000.02
2018-12-24T08:38:20.064Z,1000.04
2018-12-24T08:39:20.239Z,1000.02
2018-12-24T08:40:20.412Z,1000.00
2018-12-24T08:41:20.582Z,1000.07
2018-12-24T08:42:20.755Z,1000.08
2018-12-24T08:43:20.930Z,1000.12
2018-12-24T08:44:21.102Z,1000.13
2018-12-24T08:45:21.272Z,1000.20
2018-12-24T08:46:21.448Z,1000.24
2018-12-24T08:47:21.630Z,1000.24
2018-12-24T08:48:21.803Z,1000.25
2018-12-24T08:49:21.967Z,1000.30
2018-12-24T08:50:22.138Z,1000.33
2018-12-24T08:51:22.316Z,1000.31
2018-12-24T08:52:22.485Z,1000.26
2018-12-24T08:53:22.664Z,1000.33
2018-12-24T08:54:22.839Z,1000.29
2018-12-24T08:55:23.006Z,1000.35
2018-12-24T08:56:23.178Z,1000.26
2018-12-24T08:57:23.351Z,1000.26
2018-12-24T08:58:23.521Z,1000.26
2018-12-24T08:59:23.701Z,1000.26
2018-12-24T09:00:23.872Z,1000.23
2018-12-24T09:01:24.048Z,1000.26
2018-12-24T09:02:24.219Z,1000.26
2018-12-24T09:03:24.395Z,1000.25
2018-12-24T09:04:24.567Z,1000.26
2018-12-24T09:05:24.742Z,1000.29
2018-12-24T09:06:24.915Z,1000.28
2018-12-24T09:07:25.099Z,1000.39
2018-12-24T09:08:25.280Z,1000.36
2018-12-24T09:09:25.441Z,1000.38
2018-12-24T09:10:25.614Z,1000.44
2018-12-24T09:11:25.795Z,1000.45
2018-12-24T09:12:25.961Z,1000.43
2018-12-24T09:13:26.132Z,1000.49
2018-12-24T09:14:26.314Z,1000.51
2018-12-24T09:15:26.487Z,1000.54
2018-12-24T09:16:26.664Z,1000.55
2018-12-24T09:17:26.832Z,1000.62
2018-12-24T09:18:27.009Z,1000.58
2018-12-24T09:19:27.177Z,1000.64
2018-12-24T09:20:27.363Z,1000.66
2018-12-24T09:21:27.521Z,1000.66
2018-12-24T09:22:27.701Z,1000.71
2018-12-24T09:23:27.866Z,1000.74
2018-12-24T09:24:28.038Z,1000.77
2018-12-24T09:25:28.217Z,1000.76
2018-12-24T09:26:28.382Z,1000.81
2018-12-24T09:27:28.560Z,1000.82
2018-12-24T09:28:28.724Z,1000.82
2018-12-24T09:29:28.899Z,1000.85
2018-12-24T09:30:29.125Z,1000.83
2018-12-24T09:31:29.245Z,1000.88
2018-12-24T09:32:29.424Z,1000.81
2018-12-24T09:33:29.588Z,1000.82
2018-12-24T09:34:29.765Z,1000.85
2018-12-24T09:35:29.934Z,1000.84
2018-12-24T09:36:30.107Z,1000.78
2018-12-24T09:37:30.279Z,1000.79
2018-12-24T09:38:30.460Z,1000.83
2018-12-24T09:39:30.625Z,1000.85
2018-12-24T09:40:30.795Z,1000.82
2018-12-24T09:41:30.970Z,1000.85
2018-12-24T09:42:31.149Z,1000.88
2018-12-24T09:43:31.319Z,1000.92
2018-12-24T09:44:31.493Z,1000.91
2018-12-24T09:45:31.665Z,1000.92
2018-12-24T09:46:31.845Z,1000.98
2018-12-24T09:47:32.010Z,1000.97
2018-12-24T09:48:32.200Z,1000.96
2018-12-24T09:49:32.356Z,1001.06
2018-12-24T09:50:32.531Z,1001.07
2018-12-24T09:51:32.721Z,1001.12
2018-12-24T09:52:32.880Z,1001.14
2018-12-24T09:53:33.048Z,1001.05
2018-12-24T09:54:33.221Z,1001.08
2018-12-24T09:55:33.396Z,1001.11
2018-12-24T09:56:33.571Z,1001.10
2018-12-24T09:57:33.740Z,1001.14
2018-12-24T09:58:33.918Z,1001.14
2018-12-24T09:59:34.092Z,1001.22
2018-12-24T10:00:34.274Z,1001.19
2018-12-24T10:01:34.453Z,1001.20
2018-12-24T10:02:34.621Z,1001.21
2018-12-24T10:03:34.838Z,1001.29
2018-12-24T10:04:34.965Z,1001.26
2018-12-24T10:05:35.140Z,1001.23
2018-12-24T10:06:35.303Z,1001.28
2018-12-24T10:07:35.574Z,1001.19
2018-12-24T10:08:35.677Z,1001.32
2018-12-24T10:09:35.932Z,1001.33
2018-12-24T10:10:36.000Z,1001.34
2018-12-24T10:11:36.172Z,1001.35
2018-12-24T10:12:36.352Z,1001.35
2018-12-24T10:13:36.513Z,1001.34
2018-12-24T10:14:36.687Z,1001.37
2018-12-24T10:15:36.858Z,1001.40
2018-12-24T10:16:37.031Z,1001.42
2018-12-24T10:17:37.204Z,1001.39
2018-12-24T10:18:37.378Z,1001.47
2018-12-24T10:19:37.549Z,1001.51
2018-12-24T10:20:37.734Z,1001.51
2018-12-24T10:21:37.899Z,1001.56
2018-12-24T10:22:38.071Z,1001.54
2018-12-24T10:23:38.249Z,1001.55
2018-12-24T10:24:38.422Z,1001.57
2018-12-24T10:25:38.590Z,1001.57
2018-12-24T10:26:38.762Z,1001.59
2018-12-24T10:27:38.932Z,1001.62
2018-12-24T10:28:39.108Z,1001.59
2018-12-24T10:29:39.282Z,1001.56
2018-12-24T10:30:39.463Z,1001.63
2018-12-24T10:31:39.636Z,1001.61
2018-12-24T10:32:39.802Z,1001.62
2018-12-24T10:33:39.988Z,1001.66
2018-12-24T10:34:40.162Z,1001.65
2018-12-24T10:35:40.333Z,1001.68
2018-12-24T10:36:40.513Z,1001.70
2018-12-24T10:37:40.683Z,1001.71
2018-12-24T10:38:40.855Z,1001.71
2018-12-24T10:39:41.029Z,1001.77
2018-12-24T10:40:41.222Z,1001.69
2018-12-24T10:41:41.377Z,1001.74
2018-12-24T10:42:41.567Z,1001.74
2018-12-24T10:43:41.734Z,1001.72
2018-12-24T10:44:41.892Z,1001.71
2018-12-24T10:45:42.068Z,1001.74
2018-12-24T10:46:42.244Z,1001.71
2018-12-24T10:47:42.415Z,1001.71
2018-12-24T10:48:42.592Z,1001.68
2018-12-24T10:49:42.768Z,1001.72
2018-12-24T10:50:42.938Z,1001.78
2018-12-24T10:51:43.114Z,1001.80
2018-12-24T10:52:43.276Z,1001.83
2018-12-24T10:53:43.461Z,1001.81
2018-12-24T10:54:43.632Z,1001.82
2018-12-24T10:55:43.803Z,1001.87
2018-12-24T10:56:43.983Z,1001.91
2018-12-24T10:57:44.168Z,1001.92
2018-12-24T10:58:44.348Z,1001.92
2018-12-24T10:59:44.509Z,1001.97
2018-12-24T11:00:44.681Z,1001.97
2018-12-24T11:01:44.886Z,1001.96
2018-12-24T11:02:45.031Z,1001.99
2018-12-24T11:03:45.201Z,1001.97
2018-12-24T11:04:45.370Z,1002.04
2018-12-24T11:05:45.548Z,1002.06
2018-12-24T11:06:45.722Z,1002.06
2018-12-24T11:07:45.892Z,1001.98
2018-12-24T11:08:46.077Z,1002.07
2018-12-24T11:09:46.351Z,1002.08
2018-12-24T11:10:46.806Z,1002.09
2018-12-24T11:11:46.590Z,1002.15
2018-12-24T11:12:46.762Z,1002.12
2018-12-24T11:13:46.936Z,1002.15
2018-12-24T11:14:47.109Z,1002.13
2018-12-24T11:15:47.281Z,1002.17
2018-12-24T11:16:47.462Z,1002.18
2018-12-24T11:17:47.627Z,1002.15
2018-12-24T11:18:47.813Z,1002.20
2018-12-24T11:19:47.971Z,1002.18
2018-12-24T11:20:48.151Z,1002.10
2018-12-24T11:21:48.324Z,1002.14
2018-12-24T11:22:48.495Z,1002.11
2018-12-24T11:23:48.672Z,1002.14
2018-12-24T11:24:48.853Z,1002.16
2018-12-24T11:25:49.015Z,1002.23
2018-12-24T11:26:49.188Z,1002.20
2018-12-24T11:27:49.360Z,1002.27
2018-12-24T11:28:49.531Z,1002.26
2018-12-24T11:29:49.706Z,1002.29
2018-12-24T11:30:49.879Z,1002.30
2018-12-24T11:31:50.053Z,1002.37
2018-12-24T11:32:50.240Z,1002.33
2018-12-24T11:33:50.398Z,1002.25
2018-12-24T11:34:50.572Z,1002.25
2018-12-24T11:35:50.746Z,1002.23
2018-12-24T11:36:50.920Z,1002.19
2018-12-24T11:37:51.090Z,1002.26
2018-12-24T11:38:51.279Z,1002.24
2018-12-24T11:39:51.439Z,1002.27
2018-12-24T11:40:51.610Z,1002.30
2018-12-24T11:41:51.779Z,1002.31
2018-12-24T11:42:51.956Z,1002.32
2018-12-24T11:43:52.133Z,1002.32
2018-12-24T11:44:52.299Z,1002.32
2018-12-24T11:45:52.470Z,1002.30
2018-12-24T11:46:52.646Z,1002.31
2018-12-24T11:47:52.828Z,1002.30
2018-12-24T11:48:52.990Z,1002.29
2018-12-24T11:49:53.161Z,1002.33
2018-12-24T11:50:53.333Z,1002.26
2018-12-24T11:51:53.524Z,1002.31
2018-12-24T11:52:53.676Z,1002.32
2018-12-24T11:53:53.858Z,1002.32
2018-12-24T11:54:54.060Z,1002.34
2018-12-24T11:55:54.198Z,1002.37
2018-12-24T11:56:54.378Z,1002.37
2018-12-24T11:57:54.550Z,1002.37
2018-12-24T11:58:54.722Z,1002.45
2018-12-24T11:59:54.901Z,1002.44
2018-12-24T12:00:55.091Z,1002.43
2018-12-24T12:01:55.239Z,1002.52
2018-12-24T12:02:55.438Z,1002.50
2018-12-24T12:03:55.600Z,1002.50
2018-12-24T12:04:55.765Z,1002.56
2018-12-24T12:05:55.960Z,1002.53
2018-12-24T12:06:56.116Z,1002.52
2018-12-24T12:07:56.319Z,1002.60
2018-12-24T12:08:56.473Z,1002.62
2018-12-24T12:09:56.637Z,1002.58
2018-12-24T12:10:56.814Z,1002.61
2018-12-24T12:11:56.986Z,1002.63
2018-12-24T12:12:57.158Z,1002.64
2018-12-24T12:13:57.345Z,1002.68
2018-12-24T12:14:57.514Z,1002.70
2018-12-24T12:15:57.686Z,1002.69
2018-12-24T12:16:57.853Z,1002.72
2018-12-24T12:17:58.029Z,1002.74
2018-12-24T12:18:58.225Z,1002.69
2018-12-24T12:19:58.407Z,1002.64
2018-12-24T12:20:58.584Z,1002.68
2018-12-24T12:21:58.751Z,1002.71
2018-12-24T12:22:58.934Z,1002.73
2018-12-24T12:23:59.109Z,1002.67
2018-12-24T12:24:59.281Z,1002.70
2018-12-24T12:25:59.460Z,1002.76
2018-12-24T12:26:59.635Z,1002.82